createdAt,value
2023-03-03T00:04:08.265Z,4.90
2023-03-03T00:09:11.130Z,4.70
2023-03-03T00:14:23.153Z,4.90
2023-03-03T00:19:26.232Z,4.80
2023-03-03T00:24:37.818Z,4.90
2023-03-03T00:29:46.804Z,5.00
2023-03-03T00:34:50.790Z,5.00
2023-03-03T00:39:53.656Z,5.00
2023-03-03T00:45:00.227Z,5.10
2023-03-03T00:50:26.560Z,5.00
2023-03-03T00:55:29.657Z,4.90
2023-03-03T01:00:34.645Z,4.90
2023-03-03T01:05:39.610Z,4.70
2023-03-03T01:10:46.721Z,4.80
2023-03-03T01:15:57.162Z,4.80
2023-03-03T01:21:00.263Z,4.80
2023-03-03T01:26:03.350Z,4.70
2023-03-03T01:31:08.040Z,4.70
2023-03-03T01:36:11.133Z,4.50
2023-03-03T01:41:13.995Z,4.50
2023-03-03T01:46:51.486Z,4.60
2023-03-03T01:51:58.750Z,4.70
2023-03-03T01:57:06.952Z,4.80
2023-03-03T02:02:11.412Z,4.70
2023-03-03T02:07:17.128Z,4.60
2023-03-03T02:12:24.259Z,4.70
2023-03-03T02:17:28.494Z,4.70
2023-03-03T02:22:41.722Z,4.70
2023-03-03T02:27:45.987Z,4.60
2023-03-03T02:32:48.892Z,4.60
2023-03-03T02:37:52.326Z,4.60
2023-03-03T02:42:58.380Z,4.60
2023-03-03T02:48:01.250Z,4.50
2023-03-03T02:53:04.744Z,3.80
2023-03-03T02:58:09.065Z,3.50
2023-03-03T03:03:12.162Z,3.10
2023-03-03T03:08:15.793Z,3.10
2023-03-03T03:13:20.093Z,3.10
2023-03-03T03:18:24.858Z,3.40
2023-03-03T03:23:29.819Z,3.50
2023-03-03T03:28:35.417Z,3.50
2023-03-03T03:33:38.759Z,3.60
2023-03-03T03:38:42.337Z,3.60
2023-03-03T03:43:48.823Z,3.30
2023-03-03T03:48:52.477Z,3.50
2023-03-03T03:53:56.920Z,3.70
2023-03-03T03:59:01.657Z,3.70
2023-03-03T04:04:05.183Z,3.60
2023-03-03T04:09:08.428Z,3.70
2023-03-03T04:14:13.170Z,3.70
2023-03-03T04:19:16.138Z,3.70
2023-03-03T04:24:20.350Z,3.70
2023-03-03T04:29:27.638Z,3.70
2023-03-03T04:34:31.043Z,3.70
2023-03-03T04:39:35.426Z,3.70
2023-03-03T04:44:40.655Z,3.60
2023-03-03T04:49:43.933Z,3.70
2023-03-03T04:54:48.307Z,3.70
2023-03-03T04:59:52.647Z,3.70
2023-03-03T05:04:55.739Z,3.80
2023-03-03T05:09:58.682Z,3.80
2023-03-03T05:15:02.926Z,3.70
2023-03-03T05:20:08.550Z,3.60
2023-03-03T05:25:12.717Z,4.30
2023-03-03T05:30:17.184Z,4.10
2023-03-03T05:35:20.743Z,4.10
2023-03-03T05:40:23.722Z,4.10
2023-03-03T05:45:28.057Z,4.00
2023-03-03T05:50:30.995Z,4.10
2023-03-03T05:55:33.966Z,4.10
2023-03-03T06:00:38.406Z,4.00
2023-03-03T06:05:41.302Z,3.80
2023-03-03T06:10:49.748Z,3.70
2023-03-03T06:15:54.306Z,3.70
2023-03-03T06:20:57.505Z,3.90
2023-03-03T06:26:00.375Z,5.00
2023-03-03T06:31:04.845Z,4.40
2023-03-03T06:36:08.399Z,4.30
2023-03-03T06:41:11.961Z,4.40
2023-03-03T06:46:17.348Z,4.30
2023-03-03T06:51:26.826Z,4.30
2023-03-03T06:56:30.658Z,4.40
2023-03-03T07:01:37.739Z,4.40
2023-03-03T07:06:40.614Z,4.50
2023-03-03T07:11:45.652Z,4.40
2023-03-03T07:16:54.928Z,4.40
2023-03-03T07:21:58.789Z,4.50
2023-03-03T07:27:11.106Z,4.50
2023-03-03T07:32:27.143Z,4.50
2023-03-03T07:37:38.507Z,4.60
2023-03-03T07:42:44.214Z,4.70
2023-03-03T07:48:15.503Z,4.60
2023-03-03T07:53:27.186Z,4.50
2023-03-03T07:58:38.629Z,4.50
2023-03-03T08:03:45.607Z,4.50
2023-03-03T08:08:48.470Z,4.50
2023-03-03T08:13:51.323Z,4.60
2023-03-03T08:18:57.104Z,4.60
2023-03-03T08:24:00.070Z,4.60
2023-03-03T08:29:03.088Z,4.40
2023-03-03T08:34:07.402Z,4.40
2023-03-03T08:39:10.447Z,4.30
2023-03-03T08:44:13.376Z,4.10
2023-03-03T08:49:17.668Z,4.10
2023-03-03T08:54:20.593Z,4.30
2023-03-03T08:59:23.507Z,4.20
2023-03-03T09:04:27.806Z,4.50
2023-03-03T09:09:30.952Z,4.50
2023-03-03T09:14:33.922Z,4.80
2023-03-03T09:19:38.347Z,5.10
2023-03-03T09:24:43.748Z,5.20
2023-03-03T09:29:46.890Z,5.20
2023-03-03T09:34:52.104Z,5.30
2023-03-03T09:39:57.462Z,5.00
2023-03-03T09:45:19.943Z,5.10
2023-03-03T09:50:33.894Z,5.20
2023-03-03T09:55:45.511Z,5.10
2023-03-03T10:00:59.999Z,5.20
2023-03-03T10:06:11.680Z,5.20
2023-03-03T10:11:22.097Z,5.20
2023-03-03T10:16:40.575Z,5.40
2023-03-03T10:21:52.118Z,5.50
2023-03-03T10:27:18.496Z,5.70
2023-03-03T10:32:38.135Z,5.80
2023-03-03T10:37:49.797Z,5.90
2023-03-03T10:43:06.014Z,5.80
2023-03-03T10:48:34.786Z,5.80
2023-03-03T10:53:48.586Z,5.90
2023-03-03T10:59:14.415Z,5.80
2023-03-03T11:04:26.292Z,5.80
2023-03-03T11:09:58.530Z,6.00
2023-03-03T11:15:20.776Z,6.00
2023-03-03T11:20:34.915Z,6.10
2023-03-03T11:25:45.459Z,6.30
2023-03-03T11:31:03.253Z,6.40
2023-03-03T11:36:12.897Z,6.50
2023-03-03T11:41:27.345Z,6.50
2023-03-03T11:46:34.743Z,6.60
2023-03-03T11:51:48.768Z,6.60
2023-03-03T11:56:58.331Z,6.60
2023-03-03T12:02:10.187Z,6.80
2023-03-03T12:07:27.824Z,7.00
2023-03-03T12:12:37.861Z,7.20
2023-03-03T12:18:00.649Z,7.10
2023-03-03T12:23:19.615Z,7.00
2023-03-03T12:28:27.181Z,7.00
2023-03-03T12:33:40.303Z,7.20
2023-03-03T12:38:53.739Z,7.40
2023-03-03T12:44:03.728Z,7.80
2023-03-03T12:49:06.730Z,7.90
2023-03-03T12:54:27.035Z,8.60
2023-03-03T12:59:40.048Z,8.60
2023-03-03T13:04:48.072Z,8.60
2023-03-03T13:10:02.810Z,8.70
2023-03-03T13:15:16.280Z,8.70
2023-03-03T13:20:26.101Z,8.90
2023-03-03T13:25:44.376Z,8.70
2023-03-03T13:30:51.666Z,8.90
2023-03-03T13:35:59.070Z,8.80
2023-03-03T13:41:11.956Z,9.00
2023-03-03T13:46:26.783Z,9.00
2023-03-03T13:51:42.127Z,9.10
2023-03-03T13:56:57.293Z,9.10
2023-03-03T14:02:11.362Z,9.30
2023-03-03T14:07:19.184Z,9.30
2023-03-03T14:12:29.734Z,9.50
2023-03-03T14:17:43.364Z,9.60
2023-03-03T14:22:52.473Z,9.60
2023-03-03T14:28:03.960Z,9.50
2023-03-03T14:33:20.548Z,9.60
2023-03-03T14:38:26.591Z,9.70
2023-03-03T14:43:38.294Z,9.60
2023-03-03T14:48:54.359Z,9.50
2023-03-03T14:53:58.490Z,9.60
2023-03-03T14:59:19.166Z,9.70
2023-03-03T15:04:28.939Z,9.70
2023-03-03T15:09:36.719Z,9.70
2023-03-03T15:14:45.958Z,9.70
2023-03-03T15:20:04.068Z,9.70
2023-03-03T15:25:16.135Z,9.80
2023-03-03T15:30:26.035Z,9.80
2023-03-03T15:35:51.358Z,9.80
2023-03-03T15:41:01.092Z,9.80
2023-03-03T15:46:15.800Z,9.70
2023-03-03T15:51:31.445Z,9.80
2023-03-03T15:56:42.221Z,9.80
2023-03-03T16:01:51.908Z,9.60
2023-03-03T16:07:03.840Z,9.60
2023-03-03T16:12:17.772Z,9.70
2023-03-03T16:17:28.604Z,9.70
2023-03-03T16:22:55.877Z,9.50
2023-03-03T16:28:06.807Z,9.50
2023-03-03T16:33:22.172Z,9.60
2023-03-03T16:38:51.186Z,9.50
2023-03-03T16:44:05.090Z,9.30
2023-03-03T16:49:11.913Z,9.30
2023-03-03T16:54:27.820Z,9.20
2023-03-03T16:59:49.534Z,9.10
2023-03-03T17:04:59.218Z,9.20
2023-03-03T17:10:23.373Z,9.20
2023-03-03T17:15:44.277Z,9.20
2023-03-03T17:20:51.510Z,9.60
2023-03-03T17:26:02.483Z,9.50
2023-03-03T17:31:11.093Z,9.60
2023-03-03T17:36:25.862Z,9.70
2023-03-03T17:41:35.913Z,9.60
2023-03-03T17:46:43.167Z,9.40
2023-03-03T17:52:17.170Z,9.50
2023-03-03T17:57:35.712Z,9.40
2023-03-03T18:03:10.233Z,9.30
2023-03-03T18:08:28.012Z,9.10
2023-03-03T18:13:56.213Z,9.10
2023-03-03T18:19:21.883Z,8.90
2023-03-03T18:24:34.228Z,8.80
2023-03-03T18:30:01.954Z,8.60
2023-03-03T18:35:25.916Z,8.30
2023-03-03T18:40:34.645Z,8.40
2023-03-03T18:45:57.732Z,8.40
2023-03-03T18:51:00.661Z,8.30
2023-03-03T18:56:04.791Z,8.20
2023-03-03T19:01:36.698Z,8.20
2023-03-03T19:07:03.913Z,8.10
2023-03-03T19:12:10.552Z,8.00
2023-03-03T19:17:49.214Z,8.00
2023-03-03T19:23:02.001Z,7.80
2023-03-03T19:28:26.311Z,7.70
2023-03-03T19:33:43.772Z,7.60
2023-03-03T19:39:03.559Z,7.60
2023-03-03T19:44:20.357Z,7.30
2023-03-03T19:49:42.764Z,7.40
2023-03-03T19:54:58.725Z,7.20
2023-03-03T20:00:07.054Z,7.20
2023-03-03T20:05:24.406Z,7.00
2023-03-03T20:10:39.454Z,7.50
2023-03-03T20:15:52.196Z,7.30
2023-03-03T20:21:07.864Z,7.20
2023-03-03T20:26:18.854Z,7.30
2023-03-03T20:31:28.723Z,7.20
2023-03-03T20:36:40.988Z,6.80
2023-03-03T20:41:58.732Z,6.80
2023-03-03T20:47:11.095Z,6.50
2023-03-03T20:52:22.170Z,6.40
2023-03-03T20:57:34.078Z,6.40
2023-03-03T21:02:42.980Z,6.40
2023-03-03T21:07:55.825Z,6.40
2023-03-03T21:13:19.986Z,6.30
2023-03-03T21:18:24.839Z,6.30
2023-03-03T21:23:29.079Z,6.30
2023-03-03T21:28:34.604Z,6.30
2023-03-03T21:33:49.465Z,6.20
2023-03-03T21:38:55.141Z,5.90
2023-03-03T21:43:58.065Z,6.10
2023-03-03T21:49:00.977Z,6.00
2023-03-03T21:54:05.378Z,5.90
2023-03-03T21:59:09.173Z,5.80
2023-03-03T22:04:12.175Z,5.80
2023-03-03T22:09:16.430Z,5.60
2023-03-03T22:14:19.536Z,5.80
2023-03-03T22:19:22.437Z,5.60
2023-03-03T22:24:26.748Z,5.60
2023-03-03T22:29:29.652Z,5.60
2023-03-03T22:34:32.620Z,5.50
2023-03-03T22:39:37.121Z,5.50
2023-03-03T22:44:40.377Z,5.20
2023-03-03T22:49:44.441Z,5.30
2023-03-03T22:54:50.982Z,5.30
2023-03-03T22:59:53.849Z,5.20
2023-03-03T23:05:00.952Z,5.10
2023-03-03T23:10:06.999Z,5.00
2023-03-03T23:15:13.367Z,5.00
2023-03-03T23:20:18.580Z,5.00
2023-03-03T23:25:23.987Z,5.00
2023-03-03T23:30:27.073Z,4.90
2023-03-03T23:35:30.033Z,5.00
2023-03-03T23:40:41.232Z,4.90
2023-03-03T23:45:44.188Z,4.70
2023-03-03T23:50:48.320Z,4.70
2023-03-03T23:55:52.533Z,4.50
